createdAt,value
2018-12-25T00:00:27.782Z,8.10
2018-12-25T00:02:55.375Z,10.20
2018-12-25T00:05:23.693Z,11.00
2018-12-25T00:07:52.259Z,10.90
2018-12-25T00:10:19.812Z,10.53
2018-12-25T00:12:47.390Z,9.17
2018-12-25T00:15:14.936Z,9.50
2018-12-25T00:17:42.519Z,8.73
2018-12-25T00:20:10.101Z,12.13
2018-12-25T00:22:37.648Z,14.93
2018-12-25T00:25:05.233Z,9.20
2018-12-25T00:27:32.920Z,8.97
2018-12-25T00:30:00.489Z,8.27
2018-12-25T00:32:28.053Z,10.13
2018-12-25T00:34:55.628Z,10.00
2018-12-25T00:37:23.196Z,12.63
2018-12-25T00:39:50.740Z,9.10
2018-12-25T00:42:18.311Z,11.40
2018-12-25T00:44:46.638Z,13.37
2018-12-25T00:47:14.213Z,10.60
2018-12-25T00:49:41.769Z,9.23
2018-12-25T00:52:09.349Z,7.73
2018-12-25T00:54:37.692Z,8.63
2018-12-25T00:57:05.242Z,7.17
2018-12-25T00:59:32.817Z,7.07
2018-12-25T01:02:02.185Z,8.70
2018-12-25T01:04:28.016Z,7.13
2018-12-25T01:06:56.318Z,6.03
2018-12-25T01:09:23.896Z,7.20
2018-12-25T01:11:51.441Z,6.77
2018-12-25T01:14:19.025Z,6.00
2018-12-25T01:16:46.605Z,7.10
2018-12-25T01:19:14.189Z,7.87
2018-12-25T01:21:41.744Z,7.33
2018-12-25T01:24:09.398Z,7.90
2018-12-25T01:26:36.968Z,8.07
2018-12-25T01:29:04.541Z,12.07
2018-12-25T01:31:32.093Z,8.20
2018-12-25T01:33:59.649Z,11.00
2018-12-25T01:36:27.222Z,9.60
2018-12-25T01:38:54.770Z,6.80
2018-12-25T01:41:22.341Z,8.93
2018-12-25T01:43:49.904Z,7.40
2018-12-25T01:46:18.248Z,9.80
2018-12-25T01:48:45.807Z,5.97
2018-12-25T01:51:13.385Z,8.60
2018-12-25T01:53:40.928Z,21.23
2018-12-25T01:56:08.506Z,7.30
2018-12-25T01:58:36.045Z,8.00
2018-12-25T02:01:03.591Z,6.20
2018-12-25T02:03:31.161Z,7.40
2018-12-25T02:05:58.738Z,7.57
2018-12-25T02:08:26.304Z,6.87
2018-12-25T02:10:54.624Z,7.20
2018-12-25T02:13:22.202Z,6.70
2018-12-25T02:15:49.778Z,6.37
2018-12-25T02:18:17.339Z,6.97
2018-12-25T02:20:44.910Z,8.47
2018-12-25T02:23:12.458Z,8.97
2018-12-25T02:25:40.032Z,8.23
2018-12-25T02:28:07.593Z,8.10
2018-12-25T02:30:35.213Z,6.10
2018-12-25T02:33:03.694Z,6.77
2018-12-25T02:35:31.273Z,8.10
2018-12-25T02:37:58.825Z,7.40
2018-12-25T02:40:27.146Z,11.03
2018-12-25T02:42:54.791Z,5.70
2018-12-25T02:45:22.346Z,5.20
2018-12-25T02:47:49.921Z,5.53
2018-12-25T02:50:17.471Z,5.70
2018-12-25T02:52:45.047Z,4.87
2018-12-25T02:55:12.606Z,7.10
2018-12-25T02:57:40.265Z,6.80
2018-12-25T03:00:07.811Z,4.50
2018-12-25T03:02:35.377Z,4.73
2018-12-25T03:05:02.937Z,6.07
2018-12-25T03:07:30.508Z,6.85
2018-12-25T03:09:58.077Z,5.20
2018-12-25T03:12:25.631Z,5.63
2018-12-25T03:14:53.197Z,4.97
2018-12-25T03:17:20.773Z,5.40
2018-12-25T03:19:48.349Z,6.83
2018-12-25T03:22:15.908Z,5.10
2018-12-25T03:24:43.477Z,6.73
2018-12-25T03:27:11.061Z,8.30
2018-12-25T03:29:38.609Z,12.03
2018-12-25T03:32:06.249Z,10.47
2018-12-25T03:34:33.802Z,6.97
2018-12-25T03:37:01.350Z,4.63
2018-12-25T03:39:28.929Z,6.00
2018-12-25T03:41:56.473Z,5.17
2018-12-25T03:44:24.206Z,4.80
2018-12-25T03:46:51.628Z,6.03
2018-12-25T03:49:19.201Z,9.03
2018-12-25T03:51:46.750Z,5.40
2018-12-25T03:54:14.325Z,4.50
2018-12-25T03:56:41.911Z,4.60
2018-12-25T03:59:09.478Z,7.40
2018-12-25T04:01:37.134Z,4.57
2018-12-25T04:04:04.740Z,4.67
2018-12-25T04:06:32.318Z,5.43
2018-12-25T04:08:59.867Z,4.50
2018-12-25T04:11:27.442Z,5.20
2018-12-25T04:13:55.003Z,4.27
2018-12-25T04:16:22.554Z,5.20
2018-12-25T04:18:50.902Z,4.47
2018-12-25T04:21:18.576Z,4.50
2018-12-25T04:23:46.068Z,3.97
2018-12-25T04:26:13.644Z,3.80
2018-12-25T04:28:41.235Z,4.20
2018-12-25T04:31:08.777Z,4.37
2018-12-25T04:33:36.352Z,4.50
2018-12-25T04:36:03.935Z,4.27
2018-12-25T04:38:31.527Z,3.90
2018-12-25T04:40:59.068Z,4.10
2018-12-25T04:43:26.612Z,8.10
2018-12-25T04:45:54.171Z,3.77
2018-12-25T04:48:22.475Z,5.80
2018-12-25T04:50:50.053Z,4.53
2018-12-25T04:53:17.603Z,4.67
2018-12-25T04:55:45.180Z,5.50
2018-12-25T04:58:12.726Z,4.50
2018-12-25T05:00:40.376Z,5.20
2018-12-25T05:03:07.930Z,6.00
2018-12-25T05:05:35.505Z,5.10
2018-12-25T05:08:03.048Z,5.00
2018-12-25T05:10:30.596Z,4.23
2018-12-25T05:12:58.170Z,4.30
2018-12-25T05:15:25.713Z,4.97
2018-12-25T05:17:53.283Z,5.73
2018-12-25T05:20:20.831Z,6.07
2018-12-25T05:22:48.408Z,4.30
2018-12-25T05:25:15.983Z,4.00
2018-12-25T05:27:44.316Z,7.67
2018-12-25T05:30:12.608Z,4.70
2018-12-25T05:32:40.180Z,5.43
2018-12-25T05:35:07.724Z,3.80
2018-12-25T05:37:35.307Z,4.17
2018-12-25T05:40:02.888Z,4.70
2018-12-25T05:42:30.479Z,6.33
2018-12-25T05:44:58.056Z,5.43
2018-12-25T05:47:25.626Z,5.33
2018-12-25T05:49:53.192Z,8.57
2018-12-25T05:52:20.729Z,9.93
2018-12-25T05:54:49.293Z,7.63
2018-12-25T05:57:17.843Z,5.47
2018-12-25T05:59:45.420Z,4.50
2018-12-25T06:02:12.971Z,5.20
2018-12-25T06:04:40.550Z,3.93
2018-12-25T06:07:08.179Z,5.10
2018-12-25T06:09:35.701Z,8.40
2018-12-25T06:12:03.268Z,6.97
2018-12-25T06:14:30.840Z,3.60
2018-12-25T06:16:59.150Z,4.03
2018-12-25T06:19:26.712Z,4.77
2018-12-25T06:21:54.284Z,6.13
2018-12-25T06:24:21.858Z,5.03
2018-12-25T06:26:49.395Z,6.13
2018-12-25T06:29:17.947Z,8.00
2018-12-25T06:31:45.491Z,4.30
2018-12-25T06:34:13.828Z,6.50
2018-12-25T06:36:41.371Z,6.13
2018-12-25T06:39:08.966Z,4.30
2018-12-25T06:41:36.515Z,6.10
2018-12-25T06:44:04.084Z,8.90
2018-12-25T06:46:31.635Z,6.00
2018-12-25T06:48:59.200Z,4.60
2018-12-25T06:51:27.519Z,11.33
2018-12-25T06:53:55.095Z,13.87
2018-12-25T06:56:22.637Z,7.90
2018-12-25T06:58:50.205Z,10.17
2018-12-25T07:01:17.774Z,9.47
2018-12-25T07:03:45.312Z,10.97
2018-12-25T07:06:12.879Z,6.73
2018-12-25T07:08:40.417Z,4.80
2018-12-25T07:11:09.059Z,8.83
2018-12-25T07:13:37.368Z,6.27
2018-12-25T07:16:04.932Z,6.63
2018-12-25T07:18:32.475Z,4.20
2018-12-25T07:21:01.038Z,4.63
2018-12-25T07:23:29.354Z,4.50
2018-12-25T07:25:56.928Z,4.73
2018-12-25T07:28:24.510Z,8.50
2018-12-25T07:30:52.043Z,8.60
2018-12-25T07:33:19.624Z,8.97
2018-12-25T07:35:48.100Z,9.90
2018-12-25T07:38:15.681Z,11.47
2018-12-25T07:40:44.000Z,7.83
2018-12-25T07:43:11.544Z,10.60
2018-12-25T07:45:39.116Z,8.93
2018-12-25T07:48:06.661Z,12.00
2018-12-25T07:50:34.237Z,12.43
2018-12-25T07:53:01.808Z,11.40
2018-12-25T07:55:29.358Z,12.60
2018-12-25T07:57:56.945Z,9.60
2018-12-25T08:00:24.533Z,11.40
2018-12-25T08:02:52.099Z,9.33
2018-12-25T08:05:19.752Z,15.20
2018-12-25T08:07:47.292Z,9.87
2018-12-25T08:10:15.636Z,7.70
2018-12-25T08:12:43.227Z,14.03
2018-12-25T08:15:10.804Z,9.77
2018-12-25T08:17:38.345Z,6.80
2018-12-25T08:20:05.916Z,7.87
2018-12-25T08:22:33.502Z,10.07
2018-12-25T08:25:02.044Z,18.40
2018-12-25T08:27:29.600Z,16.20
2018-12-25T08:29:57.176Z,14.77
2018-12-25T08:32:24.728Z,14.13
2018-12-25T08:34:52.300Z,10.77
2018-12-25T08:37:19.868Z,16.10
2018-12-25T08:39:48.463Z,12.40
2018-12-25T08:42:16.017Z,15.93
2018-12-25T08:44:43.580Z,12.97
2018-12-25T08:47:11.674Z,13.67
2018-12-25T08:49:38.748Z,12.80
2018-12-25T08:52:06.327Z,13.43
2018-12-25T08:54:33.869Z,11.90
2018-12-25T08:57:01.440Z,12.13
2018-12-25T08:59:28.977Z,11.60
2018-12-25T09:01:56.549Z,11.10
2018-12-25T09:04:24.084Z,8.23
2018-12-25T09:06:51.647Z,5.70
2018-12-25T09:09:19.185Z,8.07
2018-12-25T09:11:47.501Z,6.23
2018-12-25T09:14:15.068Z,8.20
2018-12-25T09:16:42.655Z,19.07
2018-12-25T09:19:10.244Z,21.10
2018-12-25T09:21:46.175Z,8.17
2018-12-25T09:24:06.955Z,8.23
2018-12-25T09:26:34.525Z,14.73
2018-12-25T09:29:02.103Z,41.27
2018-12-25T09:31:29.644Z,13.00
2018-12-25T09:33:57.212Z,8.03
2018-12-25T09:36:24.781Z,9.00
2018-12-25T09:38:52.323Z,8.10
2018-12-25T09:41:19.896Z,9.07
2018-12-25T09:43:48.217Z,10.43
2018-12-25T09:46:15.793Z,10.63
2018-12-25T09:48:43.347Z,11.93
2018-12-25T09:51:10.883Z,10.00
2018-12-25T09:53:38.452Z,9.73
2018-12-25T09:56:05.992Z,9.47
2018-12-25T09:58:33.584Z,10.60
2018-12-25T10:01:01.143Z,13.07
2018-12-25T10:03:28.728Z,9.87
2018-12-25T10:05:57.078Z,10.47
2018-12-25T10:08:24.635Z,6.90
2018-12-25T10:10:52.198Z,7.57
2018-12-25T10:13:19.781Z,8.07
2018-12-25T10:15:48.086Z,11.87
2018-12-25T10:18:15.658Z,9.07
2018-12-25T10:20:43.195Z,8.90
2018-12-25T10:23:10.765Z,9.80
2018-12-25T10:25:38.338Z,10.30
2018-12-25T10:28:05.916Z,9.87
2018-12-25T10:30:33.456Z,8.87
2018-12-25T10:33:01.032Z,7.13
2018-12-25T10:35:28.604Z,10.07
2018-12-25T10:37:56.167Z,10.60
2018-12-25T10:40:24.506Z,11.70
2018-12-25T10:42:52.048Z,10.53
2018-12-25T10:45:20.611Z,9.90
2018-12-25T10:47:48.151Z,9.07
2018-12-25T10:50:16.493Z,9.57
2018-12-25T10:52:44.039Z,8.97
2018-12-25T10:55:11.614Z,6.73
2018-12-25T10:57:39.920Z,9.27
2018-12-25T11:00:08.243Z,8.20
2018-12-25T11:02:35.788Z,8.60
2018-12-25T11:05:03.329Z,10.67
2018-12-25T11:07:30.907Z,10.70
2018-12-25T11:09:58.435Z,8.00
2018-12-25T11:12:26.000Z,10.33
2018-12-25T11:14:56.194Z,12.37
2018-12-25T11:17:22.186Z,9.63
2018-12-25T11:19:49.735Z,10.43
2018-12-25T11:22:19.964Z,10.20
2018-12-25T11:24:44.889Z,9.77
2018-12-25T11:27:12.459Z,14.03
2018-12-25T11:29:41.006Z,10.30
2018-12-25T11:32:08.547Z,9.70
2018-12-25T11:34:36.881Z,9.70
2018-12-25T11:37:04.463Z,10.33
2018-12-25T11:39:32.038Z,10.83
2018-12-25T11:41:59.584Z,12.00
2018-12-25T11:44:27.133Z,11.83
2018-12-25T11:46:54.778Z,9.93
2018-12-25T11:49:22.307Z,8.43
2018-12-25T11:51:49.884Z,9.27
2018-12-25T11:54:18.427Z,9.37
2018-12-25T11:56:45.975Z,10.27
2018-12-25T11:59:14.300Z,9.27
2018-12-25T12:01:41.865Z,8.83
2018-12-25T12:04:09.433Z,10.07
2018-12-25T12:06:36.968Z,8.37
2018-12-25T12:09:04.532Z,8.90
2018-12-25T12:11:33.096Z,7.90
2018-12-25T12:14:00.660Z,10.67
2018-12-25T12:16:28.204Z,8.20
2018-12-25T12:18:55.760Z,7.87
2018-12-25T12:21:23.300Z,10.17
2018-12-25T12:23:51.857Z,7.23
2018-12-25T12:26:19.411Z,9.40
2018-12-25T12:28:46.976Z,10.80
2018-12-25T12:31:14.543Z,11.53
2018-12-25T12:33:42.113Z,10.63
2018-12-25T12:36:09.659Z,11.30
2018-12-25T12:38:37.224Z,9.40
2018-12-25T12:41:04.800Z,11.30
2018-12-25T12:43:32.339Z,8.73
2018-12-25T12:46:00.664Z,8.40
2018-12-25T12:48:28.224Z,9.13
2018-12-25T12:50:55.776Z,21.33
2018-12-25T12:53:23.350Z,8.97
2018-12-25T12:55:50.912Z,10.37
2018-12-25T12:58:18.480Z,10.20
2018-12-25T13:00:46.012Z,9.43
2018-12-25T13:03:13.634Z,10.67
2018-12-25T13:05:41.202Z,11.33
2018-12-25T13:08:08.747Z,11.63
2018-12-25T13:10:37.081Z,11.73
2018-12-25T13:13:04.648Z,11.73
2018-12-25T13:15:32.188Z,11.00
2018-12-25T13:17:59.757Z,10.97
2018-12-25T13:20:27.330Z,14.50
2018-12-25T13:22:54.902Z,14.07
2018-12-25T13:25:22.469Z,13.93
2018-12-25T13:27:50.049Z,11.10
2018-12-25T13:30:17.616Z,11.80
2018-12-25T13:32:45.180Z,12.83
2018-12-25T13:35:13.528Z,13.17
2018-12-25T13:37:41.103Z,12.80
2018-12-25T13:40:08.645Z,14.37
2018-12-25T13:42:36.215Z,12.63
2018-12-25T13:45:03.755Z,17.27
2018-12-25T13:47:31.324Z,19.10
2018-12-25T13:49:58.880Z,13.73
2018-12-25T13:52:26.456Z,15.10
2018-12-25T13:54:54.033Z,20.17
2018-12-25T13:57:21.571Z,16.97
2018-12-25T13:59:50.124Z,15.13
2018-12-25T14:02:17.672Z,16.93
2018-12-25T14:04:45.996Z,15.00
2018-12-25T14:07:13.557Z,20.30
2018-12-25T14:09:41.132Z,21.83
2018-12-25T14:12:08.679Z,18.70
2018-12-25T14:14:36.255Z,18.17
2018-12-25T14:17:03.800Z,19.73
2018-12-25T14:19:31.387Z,25.10
2018-12-25T14:21:59.697Z,41.60
2018-12-25T14:24:27.257Z,35.13
2018-12-25T14:26:54.836Z,24.60
2018-12-25T14:29:22.437Z,36.63
2018-12-25T14:31:50.781Z,32.80
2018-12-25T14:34:18.328Z,108.30
2018-12-25T14:36:45.911Z,214.03
2018-12-25T14:39:13.457Z,214.13
2018-12-25T14:41:41.036Z,168.20
2018-12-25T14:44:08.588Z,36.93
2018-12-25T14:46:36.158Z,77.03
2018-12-25T14:49:03.736Z,27.77
2018-12-25T14:51:31.308Z,117.80
2018-12-25T14:53:58.882Z,30.93
2018-12-25T14:56:26.434Z,43.13
2018-12-25T14:58:54.007Z,208.27
2018-12-25T15:01:21.583Z,198.03
2018-12-25T15:03:49.159Z,216.93
2018-12-25T15:06:16.709Z,314.00
2018-12-25T15:08:45.045Z,51.57
2018-12-25T15:11:12.608Z,279.30
2018-12-25T15:13:40.195Z,242.00
2018-12-25T15:16:07.738Z,30.87
2018-12-25T15:18:35.293Z,272.20
2018-12-25T15:21:02.878Z,317.63
2018-12-25T15:23:30.429Z,348.53
2018-12-25T15:25:58.773Z,45.30
2018-12-25T15:28:26.335Z,481.27
2018-12-25T15:30:55.829Z,522.03
2018-12-25T15:33:23.380Z,360.50
2018-12-25T15:35:50.951Z,290.47
2018-12-25T15:38:18.616Z,226.50
2018-12-25T15:40:46.863Z,52.03
2018-12-25T15:43:14.431Z,515.40
2018-12-25T15:45:41.975Z,560.13
2018-12-25T15:48:09.555Z,193.60
2018-12-25T15:50:37.108Z,141.00
2018-12-25T15:53:04.683Z,173.00
2018-12-25T15:55:32.233Z,222.50
2018-12-25T15:57:59.821Z,227.80
2018-12-25T16:00:27.372Z,220.77
2018-12-25T16:02:54.928Z,127.80
2018-12-25T16:05:23.268Z,220.23
2018-12-25T16:07:50.812Z,198.53
2018-12-25T16:10:18.392Z,155.00
2018-12-25T16:12:45.940Z,480.53
2018-12-25T16:15:13.517Z,270.77
2018-12-25T16:17:41.068Z,146.77
2018-12-25T16:20:08.651Z,385.63
2018-12-25T16:22:36.967Z,94.47
2018-12-25T16:25:04.567Z,156.23
2018-12-25T16:27:32.121Z,161.10
2018-12-25T16:29:59.704Z,170.17
2018-12-25T16:32:28.048Z,349.00
2018-12-25T16:34:55.621Z,359.37
2018-12-25T16:37:23.163Z,330.77
2018-12-25T16:39:50.744Z,324.27
2018-12-25T16:42:19.337Z,284.57
2018-12-25T16:44:46.920Z,328.60
2018-12-25T16:47:14.467Z,280.80
2018-12-25T16:49:42.013Z,362.83
2018-12-25T16:52:09.592Z,258.43
2018-12-25T16:54:37.145Z,127.90
2018-12-25T16:57:04.722Z,435.93
2018-12-25T16:59:32.299Z,241.20
2018-12-25T17:01:59.869Z,242.73
2018-12-25T17:04:27.421Z,359.47
2018-12-25T17:06:54.998Z,240.77
2018-12-25T17:09:22.548Z,168.33
2018-12-25T17:11:50.892Z,83.17
2018-12-25T17:14:18.470Z,73.37
2018-12-25T17:16:46.023Z,123.03
2018-12-25T17:19:13.598Z,221.73
2018-12-25T17:21:41.147Z,152.70
2018-12-25T17:24:08.724Z,172.03
2018-12-25T17:26:36.367Z,352.03
2018-12-25T17:29:03.895Z,199.23
2018-12-25T17:31:31.466Z,179.67
2018-12-25T17:33:59.052Z,147.30
2018-12-25T17:36:27.376Z,143.00
2018-12-25T17:38:55.060Z,158.60
2018-12-25T17:41:22.608Z,126.77
2018-12-25T17:43:50.184Z,95.23
2018-12-25T17:46:17.737Z,126.73
2018-12-25T17:48:46.236Z,305.63
2018-12-25T17:51:13.808Z,100.83
2018-12-25T17:53:41.379Z,137.83
2018-12-25T17:56:08.929Z,114.70
2018-12-25T17:58:36.513Z,155.10
2018-12-25T18:01:04.089Z,138.57
2018-12-25T18:03:31.702Z,203.47
2018-12-25T18:05:59.261Z,110.53
2018-12-25T18:08:27.807Z,103.07
2018-12-25T18:10:55.384Z,156.43
2018-12-25T18:13:22.952Z,63.83
2018-12-25T18:15:51.267Z,117.03
2018-12-25T18:18:18.858Z,176.77
2018-12-25T18:20:46.431Z,78.10
2018-12-25T18:23:13.984Z,138.97
2018-12-25T18:25:41.565Z,103.13
2018-12-25T18:28:09.120Z,79.50
2018-12-25T18:30:36.665Z,91.20
2018-12-25T18:33:04.263Z,36.07
2018-12-25T18:35:32.040Z,179.27
2018-12-25T18:37:59.647Z,54.73
2018-12-25T18:40:27.973Z,191.07
2018-12-25T18:42:55.542Z,216.43
2018-12-25T18:45:23.184Z,96.60
2018-12-25T18:47:50.758Z,71.50
2018-12-25T18:50:18.312Z,72.47
2018-12-25T18:52:45.868Z,62.30
2018-12-25T18:55:13.436Z,63.47
2018-12-25T18:57:41.019Z,102.43
2018-12-25T19:00:08.639Z,50.30
2018-12-25T19:02:36.197Z,38.80
2018-12-25T19:05:03.771Z,45.73
2018-12-25T19:07:31.339Z,44.87
2018-12-25T19:09:58.915Z,37.43
2018-12-25T19:12:26.459Z,32.43
2018-12-25T19:14:57.456Z,34.73
2018-12-25T19:17:25.027Z,45.53
2018-12-25T19:19:52.571Z,29.57
2018-12-25T19:22:20.231Z,27.83
2018-12-25T19:24:47.776Z,45.00
2018-12-25T19:27:15.344Z,36.30
2018-12-25T19:29:42.893Z,35.90
2018-12-25T19:32:10.469Z,42.27
2018-12-25T19:34:38.016Z,48.90
2018-12-25T19:37:05.567Z,25.67
2018-12-25T19:39:33.143Z,21.17
2018-12-25T19:42:00.691Z,30.93
2018-12-25T19:44:28.261Z,33.27
2018-12-25T19:46:55.807Z,16.30
2018-12-25T19:49:24.360Z,30.93
2018-12-25T19:51:51.923Z,38.23
2018-12-25T19:54:19.504Z,20.67
2018-12-25T19:56:47.046Z,27.47
2018-12-25T19:59:14.621Z,56.77
2018-12-25T20:01:42.165Z,35.53
2018-12-25T20:04:10.723Z,21.90
2018-12-25T20:09:59.482Z,47.90
2018-12-25T20:12:33.522Z,34.83
2018-12-25T20:15:03.861Z,23.03
2018-12-25T20:17:38.968Z,32.53
2018-12-25T20:20:12.331Z,21.13
2018-12-25T20:22:51.364Z,22.67
2018-12-25T20:25:32.406Z,19.83
2018-12-25T20:28:00.964Z,21.90
2018-12-25T20:30:37.125Z,16.70
2018-12-25T20:33:18.661Z,23.17
2018-12-25T20:35:53.645Z,16.63
2018-12-25T20:38:25.041Z,15.30
2018-12-25T20:41:01.204Z,15.93
2018-12-25T20:43:46.497Z,14.93
2018-12-25T20:46:26.628Z,14.27
2018-12-25T20:49:19.542Z,18.80
2018-12-25T20:51:51.623Z,23.10
2018-12-25T20:54:22.819Z,21.13
2018-12-25T21:00:18.996Z,15.38
2018-12-25T21:03:07.923Z,16.93
2018-12-25T21:05:41.412Z,16.60
2018-12-25T21:08:16.596Z,24.30
2018-12-25T21:14:14.820Z,21.20
2018-12-25T21:16:45.262Z,19.83
2018-12-25T21:19:24.805Z,19.87
2018-12-25T21:25:15.765Z,31.45
2018-12-25T21:27:42.854Z,30.67
2018-12-25T21:30:10.404Z,21.80
2018-12-25T21:32:38.746Z,42.23
2018-12-25T21:35:08.216Z,26.60
2018-12-25T21:37:35.789Z,24.30
2018-12-25T21:40:03.364Z,16.27
2018-12-25T21:42:30.921Z,19.27
2018-12-25T21:44:58.493Z,22.23
2018-12-25T21:47:26.073Z,21.13
2018-12-25T21:49:53.624Z,17.30
2018-12-25T21:52:21.199Z,39.13
2018-12-25T21:54:48.752Z,66.10
2018-12-25T21:57:16.328Z,34.17
2018-12-25T21:59:43.877Z,36.10
2018-12-25T22:02:11.455Z,35.20
2018-12-25T22:04:39.021Z,36.47
2018-12-25T22:07:06.572Z,36.60
2018-12-25T22:09:34.159Z,54.50
2018-12-25T22:12:01.712Z,22.15
2018-12-25T22:14:29.269Z,37.20
2018-12-25T22:16:56.859Z,52.97
2018-12-25T22:19:24.414Z,27.07
2018-12-25T22:21:52.734Z,82.57
2018-12-25T22:24:20.337Z,20.53
2018-12-25T22:26:47.896Z,24.93
2018-12-25T22:29:15.468Z,30.17
2018-12-25T22:31:43.796Z,20.77
2018-12-25T22:34:11.379Z,24.20
2018-12-25T22:36:38.935Z,19.40
2018-12-25T22:39:06.516Z,47.07
2018-12-25T22:41:34.856Z,16.00
2018-12-25T22:44:02.404Z,17.17
2018-12-25T22:46:29.984Z,16.90
2018-12-25T22:48:57.568Z,18.10
2018-12-25T22:51:25.884Z,17.87
2018-12-25T22:53:53.463Z,15.53
2018-12-25T22:56:21.035Z,18.97
2018-12-25T22:58:48.620Z,15.30
2018-12-25T23:01:16.936Z,18.13
2018-12-25T23:03:45.320Z,15.97
2018-12-25T23:06:12.915Z,21.03
2018-12-25T23:08:40.493Z,18.03
2018-12-25T23:11:08.044Z,14.97
2018-12-25T23:13:35.595Z,24.30
2018-12-25T23:16:04.164Z,16.63
2018-12-25T23:18:32.485Z,16.33
2018-12-25T23:21:00.065Z,19.03
2018-12-25T23:23:27.630Z,30.77
2018-12-25T23:25:55.218Z,27.33
2018-12-25T23:28:23.541Z,62.00
2018-12-25T23:30:51.123Z,32.57
2018-12-25T23:33:18.667Z,34.07
2018-12-25T23:35:46.238Z,19.73
2018-12-25T23:38:13.819Z,12.13
2018-12-25T23:40:41.367Z,13.80
2018-12-25T23:43:09.935Z,15.67
2018-12-25T23:45:37.475Z,12.30
2018-12-25T23:48:05.056Z,20.00
2018-12-25T23:50:32.611Z,16.97
2018-12-25T23:53:00.265Z,31.87
2018-12-25T23:55:27.800Z,33.87
2018-12-25T23:57:55.364Z,26.43
